Time;durP1;ratioP1;P1;durP2;ratioP2;P2;SDS_P1;SDS_P2;PMS_P1;PMS_P2;Temp;Humidity;BMP_temperature;BMP_pressure;BME280_temperature;BME280_humidity;BME280_pressure;Samples;Min_cycle;Max_cycle;Signal;HPM_P1;HPM_P2
2021/08/31 00:02:12;;;;;;;18.95;15.65;;;15.80;99.90;;;;;;4769702;29;20070;-90
2021/08/31 00:04:39;;;;;;;25.40;18.63;;;15.80;99.90;;;;;;4738196;30;20055;-90
2021/08/31 00:07:06;;;;;;;24.70;18.90;;;15.80;99.90;;;;;;4752708;29;20134;-89
2021/08/31 00:09:32;;;;;;;22.00;16.65;;;15.80;99.90;;;;;;4738111;29;20058;-90
2021/08/31 00:11:59;;;;;;;17.30;13.40;;;15.80;99.90;;;;;;4737971;30;20043;-90
2021/08/31 00:14:25;;;;;;;20.73;14.05;;;15.80;99.90;;;;;;4753332;30;20043;-90
2021/08/31 00:16:52;;;;;;;21.20;17.00;;;15.80;99.90;;;;;;4736435;30;20067;-88
2021/08/31 00:19:19;;;;;;;22.13;16.35;;;15.70;99.90;;;;;;4737211;30;20051;-89
2021/08/31 00:21:45;;;;;;;18.30;14.02;;;15.70;99.90;;;;;;4753199;30;20051;-90
2021/08/31 00:24:12;;;;;;;21.58;14.85;;;15.70;99.90;;;;;;4739677;30;20071;-90
2021/08/31 00:26:38;;;;;;;20.40;15.48;;;15.70;99.90;;;;;;4737007;30;20604;-90
2021/08/31 00:29:07;;;;;;;30.00;21.42;;;15.60;99.90;;;;;;4752639;30;20625;-90
2021/08/31 00:31:33;;;;;;;22.60;17.05;;;15.60;99.90;;;;;;4739271;29;20055;-90
2021/08/31 00:34:00;;;;;;;17.98;13.93;;;15.60;99.90;;;;;;4735521;30;20515;-90
2021/08/31 00:36:26;;;;;;;19.02;13.55;;;15.60;99.90;;;;;;4751021;30;20142;-89
2021/08/31 00:38:56;;;;;;;23.80;16.83;;;15.60;99.90;;;;;;4736523;29;20051;-90
2021/08/31 00:41:23;;;;;;;19.65;15.80;;;15.60;99.90;;;;;;4743293;29;20047;-90
2021/08/31 00:43:50;;;;;;;22.83;17.20;;;15.50;99.90;;;;;;4742594;29;20073;-90
2021/08/31 00:46:18;;;;;;;21.67;16.10;;;15.50;99.90;;;;;;4755915;29;20491;-90
2021/08/31 00:48:50;;;;;;;19.70;15.38;;;15.50;99.90;;;;;;4754697;29;20046;-89
2021/08/31 00:51:21;;;;;;;17.95;13.63;;;15.50;99.90;;;;;;4737982;29;20055;-89
2021/08/31 00:53:52;;;;;;;18.42;13.18;;;15.50;99.90;;;;;;4755855;29;20054;-90
2021/08/31 00:56:19;;;;;;;16.95;13.05;;;15.50;99.90;;;;;;4754617;29;20725;-90
2021/08/31 00:58:46;;;;;;;20.38;16.58;;;15.40;99.90;;;;;;4737877;30;20059;-91
2021/08/31 01:01:12;;;;;;;21.42;13.80;;;15.40;99.90;;;;;;4753727;30;20460;-90
2021/08/31 01:03:40;;;;;;;17.33;13.90;;;15.40;99.90;;;;;;4736829;30;20598;-91
2021/08/31 01:06:07;;;;;;;21.40;15.75;;;15.50;99.90;;;;;;4738095;30;20051;-89
2021/08/31 01:08:34;;;;;;;22.40;15.15;;;15.40;99.90;;;;;;4751971;30;20588;-90
2021/08/31 01:11:02;;;;;;;20.75;15.82;;;15.40;99.90;;;;;;4754473;29;20051;-89
2021/08/31 01:13:34;;;;;;;16.23;13.35;;;15.50;99.90;;;;;;4751742;30;20062;-90
2021/08/31 01:16:05;;;;;;;20.02;14.48;;;15.50;99.90;;;;;;4752409;30;20059;-89
2021/08/31 01:18:32;;;;;;;16.58;12.90;;;15.60;99.90;;;;;;4736665;29;20059;-90
2021/08/31 01:20:59;;;;;;;17.95;13.23;;;15.60;99.90;;;;;;4752231;30;20066;-88
2021/08/31 01:23:30;;;;;;;17.83;13.52;;;15.60;99.90;;;;;;4739074;29;20069;-89
2021/08/31 01:25:58;;;;;;;15.73;11.93;;;15.70;99.90;;;;;;4754842;29;21040;-89
2021/08/31 01:28:27;;;;;;;19.92;13.27;;;15.60;99.90;;;;;;4736016;30;20073;-90
2021/08/31 01:30:55;;;;;;;22.77;14.25;;;15.60;99.90;;;;;;4743028;30;20051;-88
2021/08/31 01:33:26;;;;;;;18.20;13.30;;;15.60;99.90;;;;;;4751792;29;20047;-89
2021/08/31 01:35:53;;;;;;;16.13;12.45;;;15.60;99.90;;;;;;4769829;30;20522;-90
2021/08/31 01:38:19;;;;;;;17.92;11.73;;;15.60;99.90;;;;;;4737907;29;20057;-89
2021/08/31 01:40:46;;;;;;;16.20;11.70;;;15.50;99.90;;;;;;4744175;30;20082;-89
2021/08/31 01:43:26;;;;;;;15.65;13.32;;;15.60;99.90;;;;;;4739989;30;20071;-90
2021/08/31 01:45:54;;;;;;;17.48;13.82;;;15.60;99.90;;;;;;4755215;29;20047;-91
2021/08/31 01:48:21;;;;;;;18.95;12.40;;;15.60;99.90;;;;;;4753485;30;20119;-90
2021/08/31 01:50:47;;;;;;;15.60;12.00;;;15.60;99.90;;;;;;4755508;30;20059;-90
2021/08/31 01:53:14;;;;;;;19.55;12.20;;;15.60;99.90;;;;;;4769648;29;20062;-89
2021/08/31 01:55:41;;;;;;;13.60;10.68;;;15.60;99.90;;;;;;4745403;30;20523;-90
2021/08/31 01:58:07;;;;;;;16.73;12.40;;;15.60;99.90;;;;;;4753861;30;20066;-90
2021/08/31 02:00:34;;;;;;;16.48;13.45;;;15.60;99.90;;;;;;4756046;30;20047;-90
2021/08/31 02:03:01;;;;;;;14.82;11.27;;;15.60;99.90;;;;;;4759700;29;20046;-90
2021/08/31 02:05:27;;;;;;;17.83;12.10;;;15.50;99.90;;;;;;4740051;30;20063;-90
2021/08/31 02:07:54;;;;;;;18.98;15.05;;;15.50;99.90;;;;;;4726850;29;20055;-89
2021/08/31 02:10:22;;;;;;;17.55;12.55;;;15.50;99.90;;;;;;4740298;30;20051;-90
2021/08/31 02:12:49;;;;;;;16.98;12.63;;;15.50;99.90;;;;;;4755781;30;20423;-89
2021/08/31 02:15:16;;;;;;;16.70;12.73;;;15.50;99.90;;;;;;4756397;30;20062;-90
2021/08/31 02:17:43;;;;;;;18.70;13.88;;;15.50;99.90;;;;;;4755472;29;20055;-89
2021/08/31 02:20:10;;;;;;;15.80;10.90;;;15.50;99.90;;;;;;4753514;30;20062;-88
2021/08/31 02:22:38;;;;;;;16.50;10.73;;;15.60;99.90;;;;;;4743592;30;20070;-90
2021/08/31 02:25:06;;;;;;;16.55;11.15;;;15.60;99.90;;;;;;4754918;30;20055;-90
2021/08/31 02:27:32;;;;;;;22.63;13.32;;;15.60;99.90;;;;;;4741584;29;20150;-90
2021/08/31 02:29:59;;;;;;;17.25;11.57;;;15.60;99.90;;;;;;4742169;30;20055;-89
2021/08/31 02:32:26;;;;;;;15.95;12.13;;;15.60;99.90;;;;;;4770047;29;20062;-91
2021/08/31 02:34:52;;;;;;;17.58;10.68;;;15.60;99.90;;;;;;4758534;30;20058;-91
2021/08/31 02:37:19;;;;;;;20.30;12.13;;;15.60;99.90;;;;;;4745420;30;20061;-90
2021/08/31 02:39:45;;;;;;;12.65;9.68;;;15.60;99.90;;;;;;4738933;30;20067;-90
2021/08/31 02:42:12;;;;;;;18.38;11.60;;;15.60;99.90;;;;;;4739840;30;20062;-90
2021/08/31 02:44:39;;;;;;;15.40;11.10;;;15.70;99.90;;;;;;4755392;29;20047;-90
2021/08/31 02:47:05;;;;;;;16.98;11.05;;;15.70;99.90;;;;;;4753656;29;20062;-90
2021/08/31 02:49:32;;;;;;;16.20;9.98;;;15.70;99.90;;;;;;4741786;30;20055;-89
2021/08/31 02:51:59;;;;;;;18.20;11.00;;;15.60;99.90;;;;;;4739826;29;20055;-90
2021/08/31 02:54:26;;;;;;;20.85;11.63;;;15.60;99.90;;;;;;4753597;30;20051;-89
2021/08/31 02:56:53;;;;;;;19.98;11.48;;;15.60;99.90;;;;;;4738487;30;20078;-89
2021/08/31 02:59:19;;;;;;;15.63;10.77;;;15.60;99.90;;;;;;4739974;30;20063;-90
2021/08/31 03:02:05;;;;;;;19.05;11.27;;;15.60;99.90;;;;;;4739567;30;20055;-90
2021/08/31 03:04:35;;;;;;;15.27;9.55;;;15.60;99.90;;;;;;4755178;30;20070;-90
2021/08/31 03:07:12;;;;;;;18.92;9.70;;;15.60;99.90;;;;;;4768118;30;20035;-91
2021/08/31 03:09:39;;;;;;;20.38;11.32;;;15.60;99.90;;;;;;4741102;30;20087;-90
2021/08/31 03:12:07;;;;;;;15.30;9.52;;;15.60;99.90;;;;;;4741049;29;20059;-89
2021/08/31 03:14:33;;;;;;;14.55;10.35;;;15.60;99.90;;;;;;4759223;30;20046;-90
2021/08/31 03:17:00;;;;;;;18.25;11.45;;;15.60;99.90;;;;;;4737364;29;20055;-90
2021/08/31 03:19:27;;;;;;;18.42;10.98;;;15.70;99.90;;;;;;4745344;29;20543;-89
2021/08/31 03:21:59;;;;;;;19.73;11.80;;;15.70;99.90;;;;;;4736606;30;20058;-90
2021/08/31 03:24:27;;;;;;;17.67;10.80;;;15.70;99.90;;;;;;4768368;30;20058;-89
2021/08/31 03:26:54;;;;;;;19.45;11.05;;;15.70;99.90;;;;;;4752763;29;20059;-90
2021/08/31 03:29:21;;;;;;;14.27;9.98;;;15.80;99.90;;;;;;4725729;30;20056;-90
2021/08/31 03:31:48;;;;;;;17.02;10.05;;;15.80;99.90;;;;;;4759635;29;20039;-90
2021/08/31 03:34:15;;;;;;;22.35;12.60;;;15.80;99.90;;;;;;4756214;30;20051;-90
2021/08/31 03:36:41;;;;;;;23.92;11.93;;;15.90;99.90;;;;;;4738436;30;20411;-90
2021/08/31 03:39:08;;;;;;;22.45;11.50;;;15.90;99.90;;;;;;4753381;30;20062;-89
2021/08/31 03:41:34;;;;;;;19.60;11.02;;;15.90;99.90;;;;;;4727844;29;20058;-89
2021/08/31 03:44:01;;;;;;;18.25;11.68;;;15.90;99.90;;;;;;4740935;30;20062;-90
2021/08/31 03:46:27;;;;;;;21.45;11.93;;;15.90;99.90;;;;;;4752900;29;20051;-90
2021/08/31 03:48:54;;;;;;;17.45;11.57;;;15.90;99.90;;;;;;4739296;30;20051;-92
2021/08/31 03:51:20;;;;;;;18.65;10.25;;;15.90;99.90;;;;;;4738846;29;20082;-83
2021/08/31 03:53:47;;;;;;;23.83;14.45;;;16.00;99.90;;;;;;4781675;30;20058;-84
2021/08/31 03:56:14;;;;;;;19.52;13.55;;;16.00;99.90;;;;;;4764748;30;20055;-84
2021/08/31 03:58:40;;;;;;;17.90;12.30;;;16.00;99.90;;;;;;4735971;30;20063;-84
2021/08/31 04:01:07;;;;;;;24.58;12.75;;;16.00;99.90;;;;;;4752704;30;20047;-93
2021/08/31 04:03:33;;;;;;;16.17;10.25;;;16.00;99.90;;;;;;4743755;29;20063;-93
2021/08/31 04:06:00;;;;;;;20.70;10.98;;;16.10;99.90;;;;;;4742963;29;20051;-92
2021/08/31 04:08:26;;;;;;;17.05;9.85;;;16.10;99.90;;;;;;4745501;29;20511;-91
2021/08/31 04:10:53;;;;;;;21.30;9.30;;;16.10;99.90;;;;;;4756644;30;20381;-92
2021/08/31 04:13:19;;;;;;;18.42;9.68;;;16.10;99.90;;;;;;4743367;30;20055;-92
2021/08/31 04:15:47;;;;;;;15.80;9.18;;;16.10;99.90;;;;;;4748109;29;20047;-94
2021/08/31 04:18:14;;;;;;;20.52;9.68;;;16.20;99.90;;;;;;4744388;30;20054;-91
2021/08/31 04:20:40;;;;;;;19.75;9.35;;;16.20;99.90;;;;;;4758466;30;20054;-91
2021/08/31 04:23:08;;;;;;;19.50;8.57;;;16.20;99.90;;;;;;4760093;30;20043;-92
2021/08/31 04:25:34;;;;;;;20.95;9.35;;;16.10;99.90;;;;;;4746668;30;20055;-93
2021/08/31 04:28:01;;;;;;;18.40;7.90;;;16.20;99.90;;;;;;4762078;29;20070;-93
2021/08/31 04:30:29;;;;;;;20.77;7.68;;;16.20;99.90;;;;;;4744265;29;20416;-92
2021/08/31 04:32:56;;;;;;;13.75;7.70;;;16.20;99.90;;;;;;4756385;30;20496;-92
2021/08/31 04:35:23;;;;;;;16.25;8.52;;;16.20;99.90;;;;;;4755324;30;20062;-93
2021/08/31 04:37:51;;;;;;;18.65;8.57;;;16.20;99.90;;;;;;4739618;30;20058;-94
2021/08/31 04:40:18;;;;;;;13.00;6.70;;;16.20;99.90;;;;;;4755593;30;20058;-92
2021/08/31 04:42:44;;;;;;;12.20;6.72;;;16.30;99.90;;;;;;4756600;30;20145;-93
2021/08/31 04:45:11;;;;;;;18.88;8.55;;;16.30;99.90;;;;;;4742956;30;20062;-92
2021/08/31 04:47:38;;;;;;;17.27;8.02;;;16.30;99.90;;;;;;4737784;30;20523;-93
2021/08/31 04:50:05;;;;;;;13.10;5.78;;;16.20;99.90;;;;;;4755128;30;20059;-92
2021/08/31 04:52:31;;;;;;;12.85;5.63;;;16.30;99.90;;;;;;4759055;30;20714;-92
2021/08/31 04:54:58;;;;;;;14.38;6.75;;;16.30;99.90;;;;;;4742192;30;20043;-91
2021/08/31 04:57:24;;;;;;;16.15;5.95;;;16.30;99.90;;;;;;4751331;30;20868;-91
2021/08/31 04:59:51;;;;;;;12.88;5.18;;;16.30;99.90;;;;;;4754707;30;20051;-92
2021/08/31 05:02:17;;;;;;;11.75;5.07;;;16.30;99.90;;;;;;4746497;29;20046;-92
2021/08/31 05:04:44;;;;;;;13.63;5.20;;;16.30;99.90;;;;;;4740843;30;20059;-92
2021/08/31 05:07:11;;;;;;;12.80;5.50;;;16.30;99.90;;;;;;4754881;30;20035;-93
2021/08/31 05:09:40;;;;;;;12.60;6.00;;;16.40;99.90;;;;;;4743352;30;20055;-91
2021/08/31 05:12:06;;;;;;;12.73;5.93;;;16.30;99.90;;;;;;4740283;30;20047;-91
2021/08/31 05:14:33;;;;;;;17.08;6.07;;;16.30;99.90;;;;;;4747792;30;20066;-91
2021/08/31 05:17:00;;;;;;;14.82;6.68;;;16.40;99.90;;;;;;4742457;29;20475;-92
2021/08/31 05:19:26;;;;;;;11.77;4.63;;;16.40;99.90;;;;;;4755014;30;20055;-93
2021/08/31 05:21:57;;;;;;;16.02;6.28;;;16.40;99.90;;;;;;4740191;30;20047;-92
2021/08/31 05:24:24;;;;;;;14.60;5.28;;;16.40;99.90;;;;;;4738997;30;20052;-94
2021/08/31 05:26:51;;;;;;;12.57;6.15;;;16.40;99.90;;;;;;4742602;30;20043;-93
2021/08/31 05:29:17;;;;;;;7.40;4.53;;;16.40;99.90;;;;;;4747205;30;20059;-91
2021/08/31 05:31:45;;;;;;;11.68;5.22;;;16.50;99.90;;;;;;4738841;30;20073;-92
2021/08/31 05:34:11;;;;;;;10.75;4.80;;;16.50;99.90;;;;;;4755897;30;20063;-91
2021/08/31 05:36:38;;;;;;;10.77;4.68;;;16.50;99.90;;;;;;4756321;30;20388;-92
2021/08/31 05:39:06;;;;;;;10.52;5.60;;;16.50;99.90;;;;;;4740896;30;20070;-94
2021/08/31 05:41:38;;;;;;;12.02;5.03;;;16.50;99.90;;;;;;4756670;30;20059;-92
2021/08/31 05:44:05;;;;;;;11.57;4.78;;;16.60;99.90;;;;;;4761225;30;20066;-91
2021/08/31 05:46:32;;;;;;;17.02;5.85;;;16.50;99.90;;;;;;4757990;30;20050;-93
2021/08/31 05:48:59;;;;;;;12.60;4.57;;;16.60;99.90;;;;;;4737523;30;20052;-92
2021/08/31 05:51:27;;;;;;;12.50;4.75;;;16.60;99.90;;;;;;4744707;29;20415;-93
2021/08/31 05:53:54;;;;;;;11.50;4.78;;;16.70;99.90;;;;;;4750292;30;20051;-92
2021/08/31 05:56:21;;;;;;;11.23;4.72;;;16.70;99.90;;;;;;4743319;30;20051;-94
2021/08/31 05:58:47;;;;;;;14.98;5.65;;;16.80;99.90;;;;;;4741732;30;20066;-91
2021/08/31 06:01:14;;;;;;;15.80;5.80;;;16.80;99.90;;;;;;4755124;30;20043;-92
2021/08/31 06:03:40;;;;;;;13.10;4.32;;;16.80;99.90;;;;;;4756138;30;20132;-92
2021/08/31 06:06:07;;;;;;;12.18;5.03;;;16.80;99.90;;;;;;4754481;30;20043;-93
2021/08/31 06:08:33;;;;;;;10.85;4.63;;;16.90;99.90;;;;;;4754051;30;20054;-92
2021/08/31 06:11:00;;;;;;;19.08;4.78;;;16.90;99.90;;;;;;4753918;30;20047;-92
2021/08/31 06:13:27;;;;;;;9.13;4.50;;;16.90;99.90;;;;;;4740093;30;20480;-93
2021/08/31 06:15:54;;;;;;;14.32;4.72;;;17.00;99.90;;;;;;4752302;30;20416;-88
2021/08/31 06:18:20;;;;;;;11.95;4.40;;;17.00;99.90;;;;;;4764001;29;20435;-89
2021/08/31 06:20:47;;;;;;;10.27;4.57;;;17.10;99.90;;;;;;4740291;30;20881;-85
2021/08/31 06:23:13;;;;;;;13.77;5.22;;;17.10;99.90;;;;;;4765740;29;20052;-85
2021/08/31 06:25:40;;;;;;;13.40;4.20;;;17.20;99.90;;;;;;4738314;30;20051;-85
2021/08/31 06:28:06;;;;;;;9.02;3.97;;;17.20;99.90;;;;;;4737634;30;20064;-85
2021/08/31 06:30:33;;;;;;;11.30;5.32;;;17.20;99.90;;;;;;4743219;30;20060;-83
2021/08/31 06:32:59;;;;;;;20.45;9.25;;;17.20;99.90;;;;;;4752621;30;20515;-83
2021/08/31 06:35:25;;;;;;;11.48;6.38;;;17.20;99.90;;;;;;4753617;29;20595;-84
2021/08/31 06:37:52;;;;;;;12.02;6.15;;;17.20;99.90;;;;;;4736048;29;20062;-82
2021/08/31 06:40:19;;;;;;;12.52;4.68;;;17.30;99.90;;;;;;4767362;29;20396;-78
2021/08/31 06:42:45;;;;;;;10.77;4.75;;;17.40;99.90;;;;;;4767300;29;20047;-77
2021/08/31 06:45:12;;;;;;;15.30;5.53;;;17.50;99.90;;;;;;4770246;30;20074;-77
2021/08/31 06:47:38;;;;;;;15.18;5.55;;;17.50;99.90;;;;;;4769105;29;20039;-77
2021/08/31 06:50:05;;;;;;;14.13;5.38;;;17.60;99.90;;;;;;4739296;29;20506;-77
2021/08/31 06:52:33;;;;;;;12.88;5.22;;;17.70;99.90;;;;;;4740895;29;20062;-77
2021/08/31 06:55:00;;;;;;;13.05;6.55;;;17.70;99.90;;;;;;4739643;29;20051;-77
2021/08/31 06:57:26;;;;;;;9.82;5.20;;;17.80;99.90;;;;;;4737122;29;20046;-76
2021/08/31 06:59:53;;;;;;;11.85;5.28;;;17.80;99.90;;;;;;4736271;29;20064;-77
2021/08/31 07:02:19;;;;;;;7.57;4.10;;;17.90;99.90;;;;;;4754902;29;20090;-78
2021/08/31 07:04:46;;;;;;;10.73;5.03;;;18.00;99.90;;;;;;4737818;30;20051;-78
2021/08/31 07:07:12;;;;;;;8.85;4.40;;;18.00;99.90;;;;;;4770057;29;20062;-78
2021/08/31 07:09:39;;;;;;;13.25;5.20;;;18.10;99.90;;;;;;4755910;29;20129;-78
2021/08/31 07:12:05;;;;;;;15.20;6.47;;;18.10;99.90;;;;;;4743382;29;20047;-78
2021/08/31 07:14:32;;;;;;;14.80;5.63;;;18.10;99.90;;;;;;4773137;29;20069;-78
2021/08/31 07:16:58;;;;;;;11.00;4.53;;;18.10;99.90;;;;;;4740455;29;20051;-78
2021/08/31 07:19:25;;;;;;;11.38;4.90;;;18.20;99.90;;;;;;4772609;29;20110;-77
2021/08/31 07:21:51;;;;;;;11.18;4.93;;;18.20;99.90;;;;;;4739466;30;20051;-85
2021/08/31 07:24:21;;;;;;;11.15;4.18;;;18.30;99.90;;;;;;4740375;29;20062;-78
2021/08/31 07:26:48;;;;;;;10.75;4.15;;;18.40;99.90;;;;;;4769458;30;20059;-89
2021/08/31 07:29:15;;;;;;;13.23;5.22;;;18.40;99.90;;;;;;4767725;29;20146;-90
2021/08/31 07:31:42;;;;;;;9.95;5.10;;;18.60;99.90;;;;;;4758066;30;20055;-90
2021/08/31 07:34:08;;;;;;;10.10;4.38;;;18.70;99.90;;;;;;4741508;29;20047;-91
2021/08/31 07:36:35;;;;;;;8.02;4.20;;;18.70;99.90;;;;;;4753439;30;20047;-90
2021/08/31 07:39:02;;;;;;;13.10;4.80;;;18.80;99.90;;;;;;4755416;29;20044;-92
2021/08/31 07:41:28;;;;;;;11.90;4.38;;;18.80;99.90;;;;;;4768933;29;20388;-87
2021/08/31 07:43:55;;;;;;;10.70;5.05;;;18.80;99.90;;;;;;4755894;30;20246;-88
2021/08/31 07:46:21;;;;;;;12.02;4.95;;;18.90;99.90;;;;;;4735824;29;20062;-87
2021/08/31 07:48:48;;;;;;;13.43;4.40;;;19.00;99.90;;;;;;4739594;29;20055;-87
2021/08/31 07:51:15;;;;;;;11.45;4.65;;;19.00;99.90;;;;;;4754472;29;20423;-78
2021/08/31 07:53:41;;;;;;;9.57;4.78;;;19.00;99.90;;;;;;4771687;29;20051;-78
2021/08/31 07:56:08;;;;;;;6.55;3.97;;;19.10;99.90;;;;;;4741285;29;20054;-78
2021/08/31 07:58:34;;;;;;;9.30;3.83;;;19.10;99.90;;;;;;4783203;29;20407;-78
2021/08/31 08:01:02;;;;;;;12.77;4.63;;;19.20;99.90;;;;;;4737001;30;20078;-79
2021/08/31 08:03:29;;;;;;;8.95;4.05;;;19.20;99.90;;;;;;4754914;29;20065;-78
2021/08/31 08:05:56;;;;;;;9.40;3.90;;;19.30;99.90;;;;;;4739122;29;20146;-78
2021/08/31 08:08:22;;;;;;;12.52;4.70;;;19.50;99.90;;;;;;4767097;29;20042;-78
2021/08/31 08:10:50;;;;;;;8.23;3.45;;;19.50;99.90;;;;;;4740219;30;20063;-78
2021/08/31 08:13:18;;;;;;;7.03;3.78;;;19.50;99.90;;;;;;4752407;29;20154;-78
2021/08/31 08:15:44;;;;;;;12.48;4.00;;;19.50;99.90;;;;;;4763847;29;20043;-78
2021/08/31 08:18:11;;;;;;;8.82;3.55;;;19.50;99.90;;;;;;4754985;29;20047;-79
2021/08/31 08:20:42;;;;;;;11.30;3.53;;;19.50;99.90;;;;;;4740538;29;20054;-78
2021/08/31 08:23:09;;;;;;;10.95;4.07;;;19.50;99.90;;;;;;4755225;29;20066;-79
2021/08/31 08:25:36;;;;;;;13.88;3.60;;;19.50;99.90;;;;;;4756507;29;20135;-80
2021/08/31 08:28:02;;;;;;;9.88;3.58;;;19.50;99.90;;;;;;4753420;29;20063;-79
2021/08/31 08:30:29;;;;;;;6.85;2.92;;;19.60;99.90;;;;;;4756916;29;20051;-79
2021/08/31 08:32:56;;;;;;;9.85;3.72;;;19.70;99.90;;;;;;4788205;29;20054;-79
2021/08/31 08:35:22;;;;;;;9.68;3.67;;;19.90;99.90;;;;;;4740112;29;20055;-79
2021/08/31 08:37:49;;;;;;;8.45;2.90;;;20.00;99.90;;;;;;4752946;29;20051;-79
2021/08/31 08:40:15;;;;;;;7.03;3.45;;;20.10;99.90;;;;;;4756837;29;20059;-79
2021/08/31 08:42:42;;;;;;;8.52;3.67;;;20.40;99.90;;;;;;4754269;29;20062;-79
2021/08/31 08:45:09;;;;;;;5.90;2.30;;;20.50;99.90;;;;;;4756216;29;20051;-79
2021/08/31 08:47:36;;;;;;;7.10;3.22;;;20.70;99.90;;;;;;4739988;29;20488;-79
2021/08/31 08:50:03;;;;;;;10.05;3.95;;;20.90;99.90;;;;;;4741499;29;20499;-79
2021/08/31 08:52:30;;;;;;;11.13;3.33;;;21.00;99.90;;;;;;4746192;29;20062;-79
2021/08/31 08:54:57;;;;;;;9.50;3.47;;;21.10;99.90;;;;;;4742648;29;20083;-79
2021/08/31 08:57:29;;;;;;;5.68;3.13;;;21.20;99.90;;;;;;4774818;29;20065;-80
2021/08/31 08:59:55;;;;;;;8.93;3.33;;;21.40;99.90;;;;;;4755001;29;20383;-79
2021/08/31 09:02:48;;;;;;;6.43;2.90;;;21.60;99.90;;;;;;4766300;30;20063;-91
2021/08/31 09:05:31;;;;;;;;;;;21.80;99.90;;;;;;4751100;30;20063;-86
2021/08/31 09:08:07;;;;;;;;;;;21.90;99.90;;;;;;4753414;30;19917;-89
2021/08/31 09:10:34;;;;;;;6.95;2.70;;;22.10;99.90;;;;;;4759016;29;19913;-87
2021/08/31 09:13:01;;;;;;;7.30;2.90;;;22.30;99.90;;;;;;4757893;29;20048;-89
2021/08/31 09:15:38;;;;;;;7.78;3.00;;;22.50;99.30;;;;;;4771892;29;20494;-89
2021/08/31 09:18:05;;;;;;;8.82;2.85;;;22.40;99.00;;;;;;4741686;29;20055;-87
2021/08/31 09:20:32;;;;;;;11.63;3.30;;;22.30;98.50;;;;;;4776149;29;20050;-85
2021/08/31 09:22:59;;;;;;;6.60;2.35;;;22.10;98.80;;;;;;4748566;29;20360;-85
2021/08/31 09:25:47;;;;;;;5.80;3.08;;;21.90;98.80;;;;;;4773257;29;20598;-85
2021/08/31 09:28:34;;;;;;;10.10;3.55;;;22.00;99.00;;;;;;4750776;30;20047;-84
2021/08/31 09:31:03;;;;;;;6.35;2.63;;;22.20;98.40;;;;;;4770468;29;20041;-85
2021/08/31 09:33:38;;;;;;;5.82;3.10;;;22.40;98.10;;;;;;4764814;29;20406;-87
2021/08/31 09:36:10;;;;;;;7.38;3.10;;;22.40;97.80;;;;;;4750513;30;20051;-86
2021/08/31 09:38:46;;;;;;;6.82;3.08;;;22.30;97.80;;;;;;4747961;30;20062;-86
2021/08/31 09:41:40;;;;;;;5.55;2.35;;;22.20;97.50;;;;;;4750243;30;20051;-86
2021/08/31 09:44:19;;;;;;;5.45;2.60;;;22.20;97.60;;;;;;4753901;30;20058;-86
2021/08/31 09:47:03;;;;;;;7.25;3.17;;;22.20;97.40;;;;;;4736148;29;20420;-86
2021/08/31 09:49:37;;;;;;;5.97;2.50;;;22.20;97.10;;;;;;4766535;30;20039;-86
2021/08/31 09:52:15;;;;;;;7.28;2.75;;;22.20;97.10;;;;;;4780562;29;20031;-86
2021/08/31 09:54:43;;;;;;;5.25;2.47;;;22.20;96.90;;;;;;4735810;30;20082;-87
2021/08/31 09:57:40;;;;;;;9.02;3.05;;;22.20;96.70;;;;;;4762717;30;20046;-87
2021/08/31 10:00:10;;;;;;;8.60;2.88;;;22.20;96.20;;;;;;4747769;30;20051;-86
2021/08/31 10:02:37;;;;;;;10.45;2.70;;;22.40;96.20;;;;;;4755172;30;20050;-86
2021/08/31 10:05:05;;;;;;;4.53;2.35;;;22.80;95.90;;;;;;4753689;30;20085;-86
2021/08/31 10:07:32;;;;;;;7.80;2.58;;;22.90;95.30;;;;;;4753801;29;20054;-86
2021/08/31 10:10:00;;;;;;;7.22;3.20;;;22.90;95.30;;;;;;4771798;29;20077;-90
2021/08/31 10:13:00;;;;;;;5.72;2.58;;;22.90;95.40;;;;;;4758308;29;20380;-90
2021/08/31 10:15:28;;;;;;;6.10;2.70;;;22.90;95.40;;;;;;4759410;29;20062;-89
2021/08/31 10:17:55;;;;;;;8.43;3.90;;;22.80;95.50;;;;;;4767818;29;20043;-90
2021/08/31 10:20:25;;;;;;;7.15;2.95;;;22.80;95.30;;;;;;4745032;29;20055;-93
2021/08/31 10:22:53;;;;;;;4.50;2.35;;;22.80;95.00;;;;;;4755055;29;20047;-92
2021/08/31 10:25:22;;;;;;;5.18;2.67;;;22.90;95.20;;;;;;4756312;29;20055;-92
2021/08/31 10:27:53;;;;;;;6.82;2.53;;;23.20;95.20;;;;;;4756696;29;20492;-92
2021/08/31 10:30:20;;;;;;;14.90;2.70;;;23.40;95.00;;;;;;4744147;29;20054;-92
2021/08/31 10:32:52;;;;;;;3.70;2.38;;;23.40;94.20;;;;;;4744886;30;20051;-92
2021/08/31 10:35:39;;;;;;;2.95;2.00;;;23.20;93.30;;;;;;4753444;29;20055;-92
2021/08/31 10:38:11;;;;;;;6.22;2.63;;;23.20;93.90;;;;;;4758274;29;20055;-93
2021/08/31 10:40:39;;;;;;;6.65;3.08;;;23.50;92.80;;;;;;4761380;29;20062;-90
2021/08/31 10:43:14;;;;;;;5.55;2.63;;;23.90;92.60;;;;;;4758266;29;20038;-91
2021/08/31 10:45:51;;;;;;;4.28;2.08;;;24.30;91.20;;;;;;4771720;29;20062;-91
2021/08/31 10:48:23;;;;;;;6.57;2.40;;;24.60;91.60;;;;;;4758727;29;20554;-92
2021/08/31 10:51:01;;;;;;;5.10;2.30;;;24.80;91.50;;;;;;4745601;29;20043;-91
2021/08/31 10:53:42;;;;;;;4.78;2.38;;;24.80;90.80;;;;;;4775179;29;20062;-91
2021/08/31 10:56:24;;;;;;;4.95;2.42;;;24.60;91.10;;;;;;4772520;29;20593;-91
2021/08/31 10:59:01;;;;;;;4.65;2.28;;;24.60;91.40;;;;;;4759647;30;20043;-92
2021/08/31 11:01:37;;;;;;;3.38;1.80;;;24.90;91.30;;;;;;4757617;29;20055;-93
2021/08/31 11:04:31;;;;;;;4.80;2.33;;;25.50;90.70;;;;;;4758930;30;20118;-92
2021/08/31 11:07:00;;;;;;;5.00;2.33;;;25.80;89.10;;;;;;4761665;29;20074;-93
2021/08/31 11:09:27;;;;;;;5.32;2.50;;;25.60;86.40;;;;;;4760891;29;20043;-93
2021/08/31 11:12:07;;;;;;;6.82;2.53;;;25.20;86.50;;;;;;4764789;29;20116;-90
2021/08/31 11:14:43;;;;;;;6.30;2.40;;;24.80;87.50;;;;;;4757312;30;20047;-92
2021/08/31 11:17:11;;;;;;;3.67;2.50;;;24.90;87.90;;;;;;4758675;29;20046;-92
2021/08/31 11:19:37;;;;;;;4.35;2.17;;;25.40;87.90;;;;;;4774053;29;20024;-91
2021/08/31 11:22:04;;;;;;;3.13;1.95;;;26.10;86.20;;;;;;4745440;29;20066;-92
2021/08/31 11:24:30;;;;;;;4.43;2.53;;;26.60;82.00;;;;;;4757297;30;20043;-93
2021/08/31 11:26:59;;;;;;;5.93;2.50;;;27.10;80.20;;;;;;4761433;29;20135;-92
2021/08/31 11:29:26;;;;;;;5.20;2.75;;;27.50;77.60;;;;;;4743042;29;20055;-92
2021/08/31 11:32:04;;;;;;;5.03;2.58;;;27.90;75.50;;;;;;4745201;29;20070;-92
2021/08/31 11:34:30;;;;;;;3.53;2.17;;;28.40;75.10;;;;;;4763775;29;20035;-93
2021/08/31 11:37:03;;;;;;;4.55;1.88;;;28.70;74.50;;;;;;4756258;30;20062;-92
2021/08/31 11:39:30;;;;;;;4.00;2.10;;;29.20;73.50;;;;;;4747436;29;20533;-93
2021/08/31 11:41:57;;;;;;;4.28;1.98;;;29.00;71.00;;;;;;4739976;29;20052;-92
2021/08/31 11:44:24;;;;;;;6.13;2.28;;;28.70;71.20;;;;;;4746610;30;20035;-84
2021/08/31 11:46:55;;;;;;;5.90;2.83;;;28.70;70.20;;;;;;4737705;29;20058;-84
2021/08/31 11:49:31;;;;;;;4.55;2.72;;;28.50;69.50;;;;;;4752124;29;20051;-82
2021/08/31 11:51:58;;;;;;;8.07;4.40;;;28.70;69.40;;;;;;4771299;29;20526;-85
2021/08/31 11:54:27;;;;;;;5.32;3.13;;;29.00;68.90;;;;;;4754425;30;20835;-85
2021/08/31 11:57:04;;;;;;;5.18;3.35;;;28.90;68.30;;;;;;4741518;29;20058;-90
2021/08/31 11:59:46;;;;;;;3.17;2.30;;;28.60;68.10;;;;;;4757891;29;20047;-91
2021/08/31 12:02:17;;;;;;;6.15;2.45;;;28.20;69.10;;;;;;4753034;29;20452;-91
2021/08/31 12:04:46;;;;;;;4.40;2.15;;;28.30;68.50;;;;;;4741622;30;20062;-91
2021/08/31 12:07:15;;;;;;;5.82;2.20;;;28.80;66.30;;;;;;4743402;29;20090;-91
2021/08/31 12:09:45;;;;;;;4.55;2.45;;;29.40;65.80;;;;;;4747220;29;20051;-92
2021/08/31 12:12:12;;;;;;;5.55;2.42;;;30.00;65.30;;;;;;4745504;29;20058;-92
2021/08/31 12:14:40;;;;;;;3.85;2.05;;;30.40;63.80;;;;;;4748548;29;20070;-90
2021/08/31 12:17:08;;;;;;;6.05;2.53;;;30.10;63.30;;;;;;4746925;29;20052;-91
2021/08/31 12:19:35;;;;;;;4.97;2.53;;;29.40;64.70;;;;;;4760900;29;20046;-91
2021/08/31 12:22:10;;;;;;;4.63;2.47;;;28.70;66.40;;;;;;4754332;29;20043;-90
2021/08/31 12:24:39;;;;;;;5.57;2.17;;;28.00;66.80;;;;;;4759023;30;20058;-91
2021/08/31 12:27:16;;;;;;;5.25;2.47;;;28.10;66.40;;;;;;4778949;29;20047;-90
2021/08/31 12:29:53;;;;;;;4.28;2.28;;;28.70;64.10;;;;;;4766312;29;20057;-92
2021/08/31 12:32:28;;;;;;;8.95;2.35;;;29.30;63.40;;;;;;4760514;29;20062;-91
2021/08/31 12:34:57;;;;;;;6.22;2.25;;;30.20;62.00;;;;;;4759470;29;20511;-90
2021/08/31 12:37:34;;;;;;;3.97;2.03;;;31.10;61.00;;;;;;4756562;29;20047;-91
2021/08/31 12:40:19;;;;;;;3.65;1.70;;;31.40;59.80;;;;;;4755029;29;20059;-90
2021/08/31 12:42:48;;;;;;;6.40;2.28;;;30.60;60.40;;;;;;4759168;29;20049;-91
2021/08/31 12:45:24;;;;;;;5.95;2.28;;;29.60;61.60;;;;;;4755839;29;20055;-91
2021/08/31 12:47:55;;;;;;;6.70;2.85;;;28.60;63.80;;;;;;4768627;29;20368;-91